createdAt,value
2017-06-11T00:01:11.730Z,20.60
2017-06-11T00:03:39.990Z,20.50
2017-06-11T00:06:08.508Z,20.50
2017-06-11T00:08:36.795Z,20.40
2017-06-11T00:11:05.060Z,20.20
2017-06-11T00:13:33.299Z,20.10
2017-06-11T00:16:01.591Z,20.00
2017-06-11T00:18:30.604Z,20.00
2017-06-11T00:20:58.853Z,19.90
2017-06-11T00:23:27.367Z,20.00
2017-06-11T00:25:55.609Z,19.90
2017-06-11T00:28:23.844Z,19.90
2017-06-11T00:30:52.501Z,19.80
2017-06-11T00:33:20.740Z,19.80
2017-06-11T00:35:49.066Z,19.80
2017-06-11T00:38:17.600Z,19.80
2017-06-11T00:40:45.844Z,19.80
2017-06-11T00:43:14.087Z,19.70
2017-06-11T00:45:42.375Z,19.70
2017-06-11T00:48:11.016Z,19.60
2017-06-11T00:50:39.262Z,19.60
2017-06-11T00:53:07.516Z,19.60
2017-06-11T00:55:35.767Z,19.50
2017-06-11T00:58:04.354Z,19.50
2017-06-11T01:00:35.577Z,19.50
2017-06-11T01:03:03.856Z,19.50
2017-06-11T01:05:32.098Z,19.50
2017-06-11T01:08:00.333Z,19.40
2017-06-11T01:10:28.591Z,19.40
2017-06-11T01:12:56.827Z,19.40
2017-06-11T01:15:25.105Z,19.30
2017-06-11T01:17:53.341Z,19.30
2017-06-11T01:20:21.908Z,19.20
2017-06-11T01:22:50.592Z,19.20
2017-06-11T01:25:18.834Z,19.20
2017-06-11T01:27:47.160Z,19.30
2017-06-11T01:30:15.792Z,19.20
2017-06-11T01:32:44.316Z,19.20
2017-06-11T01:35:12.581Z,19.10
2017-06-11T01:37:40.820Z,19.10
2017-06-11T01:40:09.063Z,19.20
2017-06-11T01:42:37.737Z,19.10
2017-06-11T01:45:05.975Z,19.10
2017-06-11T01:47:34.220Z,19.00
2017-06-11T01:50:02.768Z,19.00
2017-06-11T01:52:31.016Z,19.00
2017-06-11T01:54:59.620Z,19.00
2017-06-11T01:57:27.865Z,19.00
2017-06-11T01:59:56.106Z,18.90
2017-06-11T02:02:24.387Z,18.90
2017-06-11T02:04:52.630Z,18.90
2017-06-11T02:07:20.875Z,18.90
2017-06-11T02:09:49.375Z,19.00
2017-06-11T02:12:17.857Z,19.00
2017-06-11T02:14:46.512Z,18.90
2017-06-11T02:17:14.820Z,18.90
2017-06-11T02:19:43.066Z,18.90
2017-06-11T02:22:11.296Z,18.90
2017-06-11T02:24:39.964Z,18.80
2017-06-11T02:27:08.214Z,18.80
2017-06-11T02:29:36.457Z,18.80
2017-06-11T02:32:04.759Z,18.80
2017-06-11T02:34:32.992Z,18.70
2017-06-11T02:37:01.537Z,18.70
2017-06-11T02:39:29.812Z,18.70
2017-06-11T02:41:58.639Z,18.70
2017-06-11T02:44:26.939Z,18.70
2017-06-11T02:46:55.168Z,18.70
2017-06-11T02:49:23.403Z,18.60
2017-06-11T02:51:52.007Z,18.60
2017-06-11T02:54:20.238Z,18.50
2017-06-11T02:56:48.700Z,18.50
2017-06-11T02:59:17.211Z,18.50
2017-06-11T03:01:45.831Z,18.40
2017-06-11T03:04:14.072Z,18.40
2017-06-11T03:06:42.360Z,18.50
2017-06-11T03:09:10.609Z,18.50
2017-06-11T03:11:38.849Z,18.50
2017-06-11T03:14:07.116Z,18.60
2017-06-11T03:16:35.358Z,18.50
2017-06-11T03:19:03.612Z,18.40
2017-06-11T03:21:32.101Z,18.40
2017-06-11T03:24:00.342Z,18.30
2017-06-11T03:26:28.975Z,18.30
2017-06-11T03:28:57.226Z,18.30
2017-06-11T03:31:25.462Z,18.20
2017-06-11T03:33:53.729Z,18.20
2017-06-11T03:36:21.968Z,18.10
2017-06-11T03:38:50.208Z,18.00
2017-06-11T03:41:18.885Z,17.90
2017-06-11T03:43:47.537Z,17.80
2017-06-11T03:46:15.785Z,17.80
2017-06-11T03:48:44.028Z,17.80
2017-06-11T03:51:12.666Z,17.80
2017-06-11T03:53:40.996Z,17.80
2017-06-11T03:56:09.624Z,17.70
2017-06-11T03:58:37.869Z,17.70
2017-06-11T04:01:06.144Z,17.70
2017-06-11T04:03:34.392Z,17.80
2017-06-11T04:06:03.028Z,17.70
2017-06-11T04:08:31.304Z,17.70
2017-06-11T04:10:59.818Z,17.60
2017-06-11T04:13:28.055Z,17.60
2017-06-11T04:15:56.303Z,17.50
2017-06-11T04:18:24.568Z,17.50
2017-06-11T04:20:53.392Z,17.50
2017-06-11T04:23:21.628Z,17.50
2017-06-11T04:25:50.268Z,17.60
2017-06-11T04:28:18.732Z,17.60
2017-06-11T04:30:46.980Z,17.70
2017-06-11T04:33:15.532Z,17.70
2017-06-11T04:35:44.057Z,17.70
2017-06-11T04:38:12.296Z,17.80
2017-06-11T04:40:40.573Z,17.80
2017-06-11T04:43:09.832Z,17.80
2017-06-11T04:45:38.072Z,17.80
2017-06-11T04:48:06.317Z,17.90
2017-06-11T04:50:34.556Z,17.90
2017-06-11T04:53:02.805Z,18.00
2017-06-11T04:55:31.094Z,18.00
2017-06-11T04:57:59.332Z,18.00
2017-06-11T05:00:27.899Z,18.00
2017-06-11T05:02:56.168Z,18.00
2017-06-11T05:05:24.408Z,18.10
2017-06-11T05:07:56.520Z,18.10
2017-06-11T05:10:24.959Z,18.20
2017-06-11T05:12:53.199Z,18.30
2017-06-11T05:15:21.444Z,18.40
2017-06-11T05:17:49.852Z,18.50
2017-06-11T05:20:18.097Z,18.60
2017-06-11T05:22:46.341Z,18.60
2017-06-11T05:25:14.855Z,18.60
2017-06-11T05:27:43.104Z,18.70
2017-06-11T05:30:11.340Z,18.80
2017-06-11T05:32:39.601Z,18.90
2017-06-11T05:35:07.850Z,19.00
2017-06-11T05:37:36.084Z,19.10
2017-06-11T05:40:04.681Z,19.10
2017-06-11T05:42:32.912Z,19.20
2017-06-11T05:45:01.789Z,19.30
2017-06-11T05:47:30.064Z,19.40
2017-06-11T05:49:58.313Z,19.50
2017-06-11T05:52:26.548Z,19.50
2017-06-11T05:54:54.817Z,19.50
2017-06-11T05:57:23.052Z,19.60
2017-06-11T05:59:51.370Z,19.80
2017-06-11T06:02:20.165Z,20.00
2017-06-11T06:04:48.499Z,20.00
2017-06-11T06:07:16.723Z,20.00
2017-06-11T06:09:45.005Z,20.10
2017-06-11T06:12:13.456Z,20.10
2017-06-11T06:14:41.692Z,20.20
2017-06-11T06:17:12.856Z,20.30
2017-06-11T06:19:41.225Z,20.70
2017-06-11T06:22:09.436Z,21.00
2017-06-11T06:24:37.706Z,21.30
2017-06-11T06:27:06.725Z,21.50
2017-06-11T06:29:35.259Z,21.60
2017-06-11T06:32:03.842Z,21.60
2017-06-11T06:34:32.073Z,22.00
2017-06-11T06:37:00.312Z,22.30
2017-06-11T06:39:28.988Z,22.20
2017-06-11T06:41:57.242Z,22.20
2017-06-11T06:44:25.522Z,22.00
2017-06-11T06:46:53.758Z,22.00
2017-06-11T06:49:22.000Z,22.30
2017-06-11T06:51:50.282Z,22.50
2017-06-11T06:54:18.504Z,22.60
2017-06-11T06:56:46.753Z,22.80
2017-06-11T06:59:15.120Z,22.90
2017-06-11T07:01:43.348Z,23.50
2017-06-11T07:04:11.607Z,23.50
2017-06-11T07:06:40.113Z,23.80
2017-06-11T07:09:08.424Z,24.10
2017-06-11T07:11:36.759Z,24.60
2017-06-11T07:14:05.040Z,24.40
2017-06-11T07:16:33.268Z,24.70
2017-06-11T07:19:01.511Z,24.70
2017-06-11T07:21:29.857Z,24.60
2017-06-11T07:23:58.108Z,24.50
2017-06-11T07:26:26.348Z,25.10
2017-06-11T07:28:55.318Z,25.20
2017-06-11T07:31:23.560Z,25.20
2017-06-11T07:33:51.822Z,25.60
2017-06-11T07:36:20.133Z,25.30
2017-06-11T07:38:48.368Z,25.00
2017-06-11T07:41:16.733Z,24.80
2017-06-11T07:43:45.211Z,24.80
2017-06-11T07:46:13.477Z,25.80
2017-06-11T07:48:42.340Z,24.50
2017-06-11T07:51:10.623Z,24.50
2017-06-11T07:53:38.853Z,24.60
2017-06-11T07:56:07.129Z,24.70
2017-06-11T07:58:35.653Z,24.90
2017-06-11T08:01:03.891Z,25.90
2017-06-11T08:03:32.475Z,26.50
2017-06-11T08:06:00.709Z,26.00
2017-06-11T08:08:29.347Z,27.00
2017-06-11T08:10:57.612Z,27.10
2017-06-11T08:13:25.847Z,27.10
2017-06-11T08:15:54.405Z,27.10
2017-06-11T08:18:22.670Z,27.90
2017-06-11T08:20:51.155Z,28.00
2017-06-11T08:23:19.392Z,28.40
2017-06-11T08:25:47.711Z,27.70
2017-06-11T08:28:15.957Z,27.00
2017-06-11T08:30:44.201Z,28.70
2017-06-11T08:33:12.456Z,30.30
2017-06-11T08:35:41.125Z,32.10
2017-06-11T08:38:09.349Z,32.20
2017-06-11T08:40:37.619Z,32.70
2017-06-11T08:43:05.858Z,33.10
2017-06-11T08:45:34.117Z,33.10
2017-06-11T08:48:02.391Z,32.10
2017-06-11T08:50:30.612Z,32.20
2017-06-11T08:52:58.957Z,31.90
2017-06-11T08:55:27.606Z,33.50
2017-06-11T08:57:55.837Z,33.70
2017-06-11T09:00:24.493Z,35.40
2017-06-11T09:02:52.751Z,35.40
2017-06-11T09:05:20.979Z,36.60
2017-06-11T09:07:49.616Z,33.70
2017-06-11T09:10:18.648Z,33.70
2017-06-11T09:12:46.884Z,34.60
2017-06-11T09:15:15.223Z,36.00
2017-06-11T09:17:43.476Z,36.40
2017-06-11T09:20:12.157Z,38.10
2017-06-11T09:22:40.431Z,38.10
2017-06-11T09:25:09.056Z,37.70
2017-06-11T09:27:37.299Z,37.70
2017-06-11T09:30:05.981Z,38.60
2017-06-11T09:32:34.382Z,38.60
2017-06-11T09:35:02.701Z,38.10
2017-06-11T09:37:30.991Z,36.60
2017-06-11T09:39:59.280Z,35.60
2017-06-11T09:42:27.556Z,34.90
2017-06-11T09:44:55.834Z,36.30
2017-06-11T09:47:24.076Z,35.70
2017-06-11T09:49:54.395Z,36.60
2017-06-11T09:52:22.991Z,36.70
2017-06-11T09:54:51.242Z,36.60
2017-06-11T09:57:19.559Z,35.70
2017-06-11T09:59:47.792Z,34.80
2017-06-11T10:02:16.627Z,34.80
2017-06-11T10:04:45.567Z,35.70
2017-06-11T10:07:13.897Z,37.40
2017-06-11T10:09:42.153Z,37.60
2017-06-11T10:12:10.612Z,38.20
2017-06-11T10:14:38.843Z,37.90
2017-06-11T10:17:07.408Z,36.90
2017-06-11T10:19:35.687Z,37.80
2017-06-11T10:22:03.920Z,37.80
2017-06-11T10:24:32.157Z,38.30
2017-06-11T10:27:00.440Z,38.30
2017-06-11T10:29:29.072Z,38.40
2017-06-11T10:31:57.884Z,38.40
2017-06-11T10:34:26.218Z,37.30
2017-06-11T10:37:02.450Z,36.60
2017-06-11T10:39:31.448Z,36.10
2017-06-11T10:42:00.053Z,36.10
2017-06-11T10:44:28.333Z,36.20
2017-06-11T10:46:56.637Z,34.80
2017-06-11T10:49:24.871Z,34.80
2017-06-11T10:51:53.158Z,34.60
2017-06-11T10:54:21.431Z,34.40
2017-06-11T10:56:49.803Z,34.60
2017-06-11T10:59:18.343Z,34.30
2017-06-11T11:01:46.679Z,34.40
2017-06-11T11:04:14.921Z,34.90
2017-06-11T11:06:43.551Z,34.80
2017-06-11T11:09:12.155Z,34.80
2017-06-11T11:11:40.433Z,34.60
2017-06-11T11:14:08.715Z,34.90
2017-06-11T11:16:37.012Z,34.80
2017-06-11T11:19:06.012Z,34.60
2017-06-11T11:21:34.644Z,33.20
2017-06-11T11:24:02.950Z,33.20
2017-06-11T11:26:31.407Z,33.00
2017-06-11T11:28:59.669Z,33.20
2017-06-11T11:31:27.919Z,33.90
2017-06-11T11:33:56.164Z,34.30
2017-06-11T11:36:24.413Z,34.80
2017-06-11T11:38:52.780Z,35.20
2017-06-11T11:41:21.022Z,34.50
2017-06-11T11:43:49.347Z,34.00
2017-06-11T11:46:17.620Z,33.60
2017-06-11T11:48:45.871Z,33.70
2017-06-11T11:51:14.099Z,33.60
2017-06-11T11:53:42.344Z,33.30
2017-06-11T11:56:10.613Z,33.20
2017-06-11T11:58:39.078Z,33.10
2017-06-11T12:01:07.324Z,33.60
2017-06-11T12:03:35.804Z,33.20
2017-06-11T12:06:04.544Z,33.60
2017-06-11T12:08:32.775Z,33.60
2017-06-11T12:11:08.311Z,34.00
2017-06-11T12:13:36.620Z,34.30
2017-06-11T12:16:07.538Z,34.70
2017-06-11T12:18:35.772Z,35.00
2017-06-11T12:21:05.147Z,35.10
2017-06-11T12:23:40.126Z,34.80
2017-06-11T12:26:09.551Z,33.90
2017-06-11T12:28:38.175Z,34.30
2017-06-11T12:31:06.473Z,34.50
2017-06-11T12:33:34.947Z,34.30
2017-06-11T12:36:03.422Z,34.00
2017-06-11T12:38:32.078Z,33.80
2017-06-11T12:41:00.392Z,33.30
2017-06-11T12:43:28.629Z,33.50
2017-06-11T12:45:56.874Z,33.90
2017-06-11T12:48:25.313Z,34.30
2017-06-11T12:50:53.626Z,34.70
2017-06-11T12:53:22.363Z,34.30
2017-06-11T12:55:50.629Z,34.10
2017-06-11T12:58:18.888Z,33.70
2017-06-11T13:00:47.134Z,34.00
2017-06-11T13:03:16.102Z,33.30
2017-06-11T13:05:44.685Z,33.30
2017-06-11T13:08:12.932Z,33.00
2017-06-11T13:10:41.215Z,32.30
2017-06-11T13:13:09.481Z,32.30
2017-06-11T13:15:37.720Z,32.40
2017-06-11T13:18:05.973Z,32.00
2017-06-11T13:20:34.233Z,32.10
2017-06-11T13:23:02.511Z,32.70
2017-06-11T13:25:31.448Z,33.10
2017-06-11T13:27:59.689Z,33.60
2017-06-11T13:30:28.117Z,33.90
2017-06-11T13:32:56.346Z,33.60
2017-06-11T13:35:24.577Z,33.50
2017-06-11T13:37:52.856Z,33.00
2017-06-11T13:40:21.080Z,32.50
2017-06-11T13:42:49.326Z,32.30
2017-06-11T13:45:17.575Z,32.10
2017-06-11T13:47:45.830Z,32.10
2017-06-11T13:50:14.282Z,32.20
2017-06-11T13:52:42.516Z,32.30
2017-06-11T13:55:10.748Z,31.90
2017-06-11T13:57:39.185Z,32.20
2017-06-11T14:00:07.451Z,32.60
2017-06-11T14:02:35.720Z,33.00
2017-06-11T14:05:04.193Z,33.10
2017-06-11T14:07:32.441Z,33.10
2017-06-11T14:10:01.286Z,33.40
2017-06-11T14:12:29.567Z,33.40
2017-06-11T14:14:57.837Z,33.10
2017-06-11T14:17:26.124Z,33.00
2017-06-11T14:19:54.415Z,32.40
2017-06-11T14:22:22.704Z,32.10
2017-06-11T14:24:51.173Z,31.90
2017-06-11T14:27:19.737Z,32.00
2017-06-11T14:29:47.970Z,32.20
2017-06-11T14:32:16.221Z,32.30
2017-06-11T14:34:44.669Z,31.90
2017-06-11T14:37:12.904Z,31.70
2017-06-11T14:39:41.147Z,31.40
2017-06-11T14:42:09.420Z,31.30
2017-06-11T14:44:38.079Z,31.50
2017-06-11T14:47:06.320Z,31.80
2017-06-11T14:49:34.677Z,32.10
2017-06-11T14:52:02.930Z,32.10
2017-06-11T14:54:31.185Z,32.10
2017-06-11T14:56:59.472Z,31.70
2017-06-11T14:59:27.706Z,31.70
2017-06-11T15:01:55.954Z,31.60
2017-06-11T15:04:24.195Z,31.30
2017-06-11T15:06:52.425Z,31.30
2017-06-11T15:09:21.564Z,31.20
2017-06-11T15:11:49.792Z,31.20
2017-06-11T15:14:18.143Z,31.10
2017-06-11T15:16:46.657Z,30.70
2017-06-11T15:19:14.902Z,30.90
2017-06-11T15:21:43.141Z,30.60
2017-06-11T15:24:11.617Z,30.70
2017-06-11T15:26:40.040Z,30.70
2017-06-11T15:29:08.277Z,30.90
2017-06-11T15:31:36.651Z,30.90
2017-06-11T15:34:04.873Z,30.60
2017-06-11T15:36:33.411Z,30.40
2017-06-11T15:39:01.711Z,30.20
2017-06-11T15:41:30.407Z,30.10
2017-06-11T15:43:58.663Z,30.20
2017-06-11T15:46:26.948Z,30.30
2017-06-11T15:48:56.251Z,30.30
2017-06-11T15:51:24.508Z,30.30
2017-06-11T15:53:52.769Z,30.40
2017-06-11T15:56:20.996Z,30.30
2017-06-11T15:58:49.257Z,30.40
2017-06-11T16:01:17.532Z,30.30
2017-06-11T16:03:46.181Z,30.00
2017-06-11T16:06:14.423Z,30.00
2017-06-11T16:08:42.677Z,30.10
2017-06-11T16:11:10.926Z,30.20
2017-06-11T16:13:39.611Z,29.90
2017-06-11T16:16:07.829Z,29.80
2017-06-11T16:18:36.100Z,29.80
2017-06-11T16:21:04.604Z,29.90
2017-06-11T16:23:32.872Z,29.90
2017-06-11T16:26:01.326Z,29.90
2017-06-11T16:28:29.846Z,30.00
2017-06-11T16:30:58.087Z,29.90
2017-06-11T16:33:26.348Z,29.70
2017-06-11T16:35:55.646Z,29.50
2017-06-11T16:38:23.874Z,29.50
2017-06-11T16:40:52.144Z,29.40
2017-06-11T16:43:20.411Z,29.50
2017-06-11T16:45:48.654Z,29.60
2017-06-11T16:48:17.309Z,29.20
2017-06-11T16:50:45.730Z,29.20
2017-06-11T16:53:14.078Z,29.20
2017-06-11T16:55:42.626Z,29.30
2017-06-11T16:58:10.859Z,29.30
2017-06-11T17:00:39.091Z,29.30
2017-06-11T17:03:07.388Z,28.90
2017-06-11T17:05:35.627Z,28.90
2017-06-11T17:08:03.875Z,29.00
2017-06-11T17:10:32.180Z,29.00
2017-06-11T17:13:00.460Z,29.00
2017-06-11T17:15:28.719Z,28.90
2017-06-11T17:17:56.983Z,28.70
2017-06-11T17:20:25.231Z,28.70
2017-06-11T17:22:53.499Z,28.70
2017-06-11T17:25:21.783Z,28.70
2017-06-11T17:27:51.056Z,28.80
2017-06-11T17:30:19.303Z,28.80
2017-06-11T17:32:47.750Z,28.70
2017-06-11T17:35:15.970Z,28.80
2017-06-11T17:37:44.576Z,28.90
2017-06-11T17:40:13.068Z,29.00
2017-06-11T17:42:41.471Z,29.00
2017-06-11T17:45:10.017Z,28.90
2017-06-11T17:47:38.711Z,28.60
2017-06-11T17:50:06.980Z,28.60
2017-06-11T17:52:35.663Z,28.60
2017-06-11T17:55:03.947Z,28.50
2017-06-11T17:57:41.629Z,28.50
2017-06-11T18:00:11.836Z,28.40
2017-06-11T18:02:40.091Z,28.50
2017-06-11T18:05:08.323Z,28.50
2017-06-11T18:07:36.596Z,28.50
2017-06-11T18:10:04.867Z,28.40
2017-06-11T18:12:33.101Z,28.20
2017-06-11T18:15:01.432Z,28.20
2017-06-11T18:17:29.665Z,28.20
2017-06-11T18:19:57.905Z,28.20
2017-06-11T18:22:26.229Z,28.10
2017-06-11T18:24:54.473Z,28.00
2017-06-11T18:27:22.716Z,27.90
2017-06-11T18:29:51.914Z,27.80
2017-06-11T18:32:20.279Z,27.90
2017-06-11T18:34:48.988Z,27.80
2017-06-11T18:37:17.284Z,27.80
2017-06-11T18:39:45.515Z,27.40
2017-06-11T18:42:14.160Z,27.60
2017-06-11T18:44:42.445Z,27.60
2017-06-11T18:47:10.816Z,27.40
2017-06-11T18:49:39.073Z,27.30
2017-06-11T18:52:07.530Z,27.30
2017-06-11T18:54:36.560Z,27.20
2017-06-11T18:57:04.799Z,27.20
2017-06-11T18:59:33.102Z,27.20
2017-06-11T19:02:01.378Z,27.30
2017-06-11T19:04:29.724Z,27.20
2017-06-11T19:06:58.556Z,27.10
2017-06-11T19:09:26.784Z,27.10
2017-06-11T19:11:55.032Z,27.10
2017-06-11T19:14:23.312Z,27.00
2017-06-11T19:16:51.548Z,26.80
2017-06-11T19:19:19.818Z,26.90
2017-06-11T19:21:48.159Z,26.90
2017-06-11T19:24:16.410Z,26.90
2017-06-11T19:26:44.644Z,26.90
2017-06-11T19:29:12.913Z,26.90
2017-06-11T19:31:41.150Z,26.90
2017-06-11T19:34:09.416Z,26.90
2017-06-11T19:36:38.212Z,26.90
2017-06-11T19:39:06.448Z,26.80
2017-06-11T19:41:34.687Z,26.80
2017-06-11T19:44:03.653Z,26.80
2017-06-11T19:46:31.888Z,26.80
2017-06-11T19:49:00.173Z,26.80
2017-06-11T19:51:28.411Z,26.80
2017-06-11T19:53:57.044Z,26.70
2017-06-11T19:56:25.295Z,26.70
2017-06-11T19:58:53.557Z,26.80
2017-06-11T20:01:21.804Z,26.70
2017-06-11T20:03:50.064Z,26.70
2017-06-11T20:06:18.384Z,26.40
2017-06-11T20:08:46.636Z,25.90
2017-06-11T20:11:14.877Z,25.50
2017-06-11T20:13:43.128Z,25.40
2017-06-11T20:16:11.372Z,25.20
2017-06-11T20:18:39.607Z,25.10
2017-06-11T20:21:07.884Z,25.10
2017-06-11T20:23:36.124Z,25.00
2017-06-11T20:26:04.365Z,24.90
2017-06-11T20:28:32.624Z,24.90
2017-06-11T20:31:00.922Z,24.80
2017-06-11T20:33:29.140Z,24.80
2017-06-11T20:35:57.440Z,24.80
2017-06-11T20:38:25.767Z,24.80
2017-06-11T20:40:54.096Z,24.70
2017-06-11T20:43:23.877Z,24.70
2017-06-11T20:45:52.103Z,24.60
2017-06-11T20:48:20.412Z,24.60
2017-06-11T20:50:48.768Z,24.60
2017-06-11T20:53:17.447Z,24.50
2017-06-11T20:55:45.693Z,24.50
2017-06-11T20:58:14.083Z,24.50
2017-06-11T21:00:42.325Z,24.40
2017-06-11T21:03:10.848Z,24.20
2017-06-11T21:05:39.125Z,24.10
2017-06-11T21:08:07.442Z,23.90
2017-06-11T21:10:35.677Z,23.80
2017-06-11T21:13:04.120Z,23.60
2017-06-11T21:15:32.352Z,23.50
2017-06-11T21:18:00.589Z,23.40
2017-06-11T21:20:28.873Z,23.40
2017-06-11T21:22:57.124Z,23.30
2017-06-11T21:25:25.735Z,23.20
2017-06-11T21:27:53.981Z,23.20
2017-06-11T21:30:22.214Z,23.20
2017-06-11T21:32:51.451Z,23.10
2017-06-11T21:35:19.787Z,23.10
2017-06-11T21:37:48.519Z,23.00
2017-06-11T21:40:16.822Z,23.00
2017-06-11T21:42:45.050Z,23.00
2017-06-11T21:45:13.611Z,23.00
2017-06-11T21:47:41.860Z,23.10
2017-06-11T21:50:10.171Z,23.10
2017-06-11T21:52:38.740Z,23.10
2017-06-11T21:55:06.979Z,23.00
2017-06-11T21:57:35.213Z,23.00
2017-06-11T22:00:03.622Z,23.00
2017-06-11T22:02:31.852Z,23.00
2017-06-11T22:05:00.564Z,23.00
2017-06-11T22:07:29.024Z,23.00
2017-06-11T22:09:57.739Z,22.90
2017-06-11T22:12:25.975Z,23.00
2017-06-11T22:14:54.278Z,22.90
2017-06-11T22:17:22.498Z,23.00
2017-06-11T22:19:50.749Z,23.20
2017-06-11T22:22:18.991Z,23.20
2017-06-11T22:24:47.227Z,23.50
2017-06-11T22:27:15.459Z,23.70
2017-06-11T22:29:43.726Z,23.70
2017-06-11T22:32:12.043Z,23.70
2017-06-11T22:34:40.935Z,23.90
2017-06-11T22:37:09.228Z,23.90
2017-06-11T22:39:37.475Z,23.90
2017-06-11T22:42:06.138Z,24.20
2017-06-11T22:44:34.643Z,24.30
2017-06-11T22:47:02.887Z,24.30
2017-06-11T22:49:31.535Z,24.40
2017-06-11T22:51:59.747Z,24.50
2017-06-11T22:54:27.983Z,24.50
2017-06-11T22:56:56.257Z,24.20
2017-06-11T22:59:24.513Z,24.20
2017-06-11T23:01:52.744Z,24.30
2017-06-11T23:04:21.144Z,24.20
2017-06-11T23:06:49.385Z,24.20
2017-06-11T23:09:18.015Z,24.30
2017-06-11T23:11:46.258Z,24.30
2017-06-11T23:14:14.491Z,24.50
2017-06-11T23:16:42.751Z,24.30
2017-06-11T23:19:10.975Z,24.40
2017-06-11T23:21:39.215Z,24.60
2017-06-11T23:24:07.454Z,24.80
2017-06-11T23:26:35.696Z,24.50
2017-06-11T23:29:03.939Z,24.60
2017-06-11T23:31:32.416Z,24.80
2017-06-11T23:34:00.644Z,24.40
2017-06-11T23:36:28.881Z,24.10
2017-06-11T23:38:57.239Z,23.80
2017-06-11T23:41:25.476Z,23.70
2017-06-11T23:43:53.707Z,23.70
2017-06-11T23:48:56.429Z,23.40
2017-06-11T23:51:24.696Z,23.40
2017-06-11T23:53:52.959Z,23.40
2017-06-11T23:56:21.196Z,23.80
2017-06-11T23:58:49.459Z,23.70
